Time;durP1;ratioP1;P1;durP2;ratioP2;P2;SDS_P1;SDS_P2;PMS_P1;PMS_P2;Temp;Humidity;BMP_temperature;BMP_pressure;BME280_temperature;BME280_humidity;BME280_pressure;Samples;Min_cycle;Max_cycle;Signal;HPM_P1;HPM_P2
2023/10/30 00:00:52;;;;;;;7.07;0.95;;;12.90;99.90;;;;;;4917557;29;20040;-81
2023/10/30 00:03:17;;;;;;;9.30;0.88;;;12.80;99.90;;;;;;4917465;29;20043;-80
2023/10/30 00:05:43;;;;;;;6.65;0.50;;;12.80;99.90;;;;;;4901117;29;20036;-81
2023/10/30 00:08:09;;;;;;;9.13;0.75;;;12.80;99.90;;;;;;4900219;29;20032;-81
2023/10/30 00:10:35;;;;;;;2.70;0.50;;;12.90;99.90;;;;;;4916610;29;20039;-81
2023/10/30 00:13:01;;;;;;;8.75;0.70;;;12.80;99.90;;;;;;4900286;29;20028;-81
2023/10/30 00:15:27;;;;;;;5.70;0.65;;;12.80;99.90;;;;;;4900217;29;20039;-81
2023/10/30 00:17:52;;;;;;;8.02;0.80;;;12.80;99.90;;;;;;4917424;29;20039;-81
2023/10/30 00:20:18;;;;;;;5.93;0.80;;;12.80;99.90;;;;;;4898589;29;20034;-81
2023/10/30 00:22:45;;;;;;;10.32;0.88;;;12.80;99.90;;;;;;4898404;29;20089;-81
2023/10/30 00:25:10;;;;;;;8.55;0.82;;;12.80;99.90;;;;;;4898454;29;20540;-81
2023/10/30 00:27:36;;;;;;;5.13;0.90;;;12.80;99.90;;;;;;4898248;29;20123;-81
2023/10/30 00:30:02;;;;;;;9.85;0.90;;;12.80;99.90;;;;;;4898654;29;20100;-81
2023/10/30 00:32:28;;;;;;;7.78;1.58;;;12.80;99.90;;;;;;4898273;29;20041;-81
2023/10/30 00:34:53;;;;;;;8.50;1.08;;;12.70;99.90;;;;;;4898502;29;20036;-81
2023/10/30 00:37:19;;;;;;;10.02;1.10;;;12.70;99.90;;;;;;4865820;29;20486;-81
2023/10/30 00:39:45;;;;;;;9.10;2.00;;;12.70;99.90;;;;;;4881487;29;20037;-80
2023/10/30 00:42:11;;;;;;;9.38;1.17;;;12.70;99.90;;;;;;4898120;29;20043;-81
2023/10/30 00:44:38;;;;;;;10.95;1.55;;;12.70;99.90;;;;;;4881669;29;20036;-81
2023/10/30 00:47:04;;;;;;;8.43;1.10;;;12.70;99.90;;;;;;4898494;29;20033;-81
2023/10/30 00:49:31;;;;;;;9.63;0.93;;;12.60;99.90;;;;;;4881472;29;20489;-80
2023/10/30 00:51:56;;;;;;;9.93;1.10;;;12.70;99.90;;;;;;4865843;29;20108;-81
2023/10/30 00:54:22;;;;;;;6.15;0.75;;;12.60;99.90;;;;;;4898017;29;20074;-80
2023/10/30 00:56:48;;;;;;;8.73;1.00;;;12.60;99.90;;;;;;4897865;29;20080;-80
2023/10/30 00:59:13;;;;;;;9.57;1.10;;;12.70;99.90;;;;;;4898132;29;20484;-80
2023/10/30 01:01:39;;;;;;;8.85;0.88;;;12.70;99.90;;;;;;4865750;29;20128;-76
2023/10/30 01:04:08;;;;;;;8.38;0.90;;;12.70;99.90;;;;;;4897961;29;20040;-73
2023/10/30 01:06:34;;;;;;;12.55;1.42;;;12.70;99.90;;;;;;4898181;29;20505;-72
2023/10/30 01:08:59;;;;;;;6.13;0.93;;;12.60;99.90;;;;;;4898133;29;20032;-72
2023/10/30 01:11:25;;;;;;;8.88;1.20;;;12.70;99.90;;;;;;4880983;29;20040;-73
2023/10/30 01:13:51;;;;;;;13.43;1.20;;;12.60;99.90;;;;;;4881035;29;20036;-74
2023/10/30 01:16:16;;;;;;;8.65;1.13;;;12.60;99.90;;;;;;4898096;29;20462;-73
2023/10/30 01:18:42;;;;;;;11.07;1.15;;;12.60;99.90;;;;;;4897566;29;20115;-74
2023/10/30 01:21:09;;;;;;;7.35;0.95;;;12.70;99.90;;;;;;4899168;29;20049;-74
2023/10/30 01:23:35;;;;;;;7.40;1.02;;;12.60;99.90;;;;;;4901440;29;20032;-73
2023/10/30 01:26:00;;;;;;;6.75;0.77;;;12.60;99.90;;;;;;4901003;29;20482;-74
2023/10/30 01:28:26;;;;;;;10.65;1.25;;;12.70;99.90;;;;;;4901458;29;20039;-73
2023/10/30 01:30:52;;;;;;;12.90;1.48;;;12.60;99.90;;;;;;4901371;29;20024;-73
2023/10/30 01:33:17;;;;;;;8.73;0.90;;;12.60;99.90;;;;;;4884866;29;20037;-73
2023/10/30 01:35:43;;;;;;;8.60;0.90;;;12.70;99.90;;;;;;4901269;29;20473;-73
2023/10/30 01:38:08;;;;;;;10.52;1.30;;;12.60;99.90;;;;;;4869294;29;20143;-73
2023/10/30 01:40:35;;;;;;;8.77;0.98;;;12.60;99.90;;;;;;4901255;29;20031;-73
2023/10/30 01:43:09;;;;;;;12.75;1.20;;;12.70;99.90;;;;;;4884947;29;20040;-73
2023/10/30 01:45:35;;;;;;;9.95;0.98;;;12.60;99.90;;;;;;4901343;29;20033;-73
2023/10/30 01:48:02;;;;;;;7.40;0.90;;;12.60;99.90;;;;;;4901338;29;20068;-73
2023/10/30 01:50:28;;;;;;;9.23;1.23;;;12.60;99.90;;;;;;4884256;29;20036;-73
2023/10/30 01:52:54;;;;;;;10.75;1.38;;;12.60;99.90;;;;;;4900671;29;20063;-72
2023/10/30 01:55:20;;;;;;;7.75;1.10;;;12.70;99.90;;;;;;4900568;29;20477;-73
2023/10/30 01:57:45;;;;;;;7.88;0.70;;;12.60;99.90;;;;;;4901412;29;20036;-73
2023/10/30 02:00:12;;;;;;;12.52;1.25;;;12.70;99.90;;;;;;4900468;29;20088;-74
2023/10/30 02:02:39;;;;;;;9.27;1.23;;;12.70;99.90;;;;;;4900874;29;20045;-73
2023/10/30 02:05:08;;;;;;;7.55;1.27;;;12.70;99.90;;;;;;4883770;29;20033;-73
2023/10/30 02:07:34;;;;;;;9.07;1.50;;;12.70;99.90;;;;;;4900678;29;20549;-73
2023/10/30 02:09:59;;;;;;;10.65;1.25;;;12.70;99.90;;;;;;4900625;29;20087;-73
2023/10/30 02:12:25;;;;;;;9.52;1.38;;;12.70;99.90;;;;;;4884510;29;20123;-73
2023/10/30 02:14:51;;;;;;;10.38;1.20;;;12.70;99.90;;;;;;4900809;29;20504;-73
2023/10/30 02:17:16;;;;;;;6.78;1.00;;;12.70;99.90;;;;;;4900788;29;20036;-73
2023/10/30 02:19:42;;;;;;;9.63;1.42;;;12.80;99.90;;;;;;4900523;29;20033;-73
2023/10/30 02:22:08;;;;;;;10.75;0.90;;;12.80;99.90;;;;;;4900817;29;20060;-72
2023/10/30 02:24:33;;;;;;;10.68;1.92;;;12.80;99.90;;;;;;4900374;29;20036;-72
2023/10/30 02:26:59;;;;;;;10.63;1.60;;;12.80;99.90;;;;;;4900245;29;20047;-73
2023/10/30 02:29:25;;;;;;;13.95;1.48;;;12.80;99.90;;;;;;4900327;29;20047;-73
2023/10/30 02:31:50;;;;;;;12.52;1.85;;;12.80;99.90;;;;;;4899548;29;20055;-73
2023/10/30 02:34:16;;;;;;;9.90;0.82;;;12.80;99.90;;;;;;4883111;29;20029;-73
2023/10/30 02:36:42;;;;;;;12.18;1.40;;;12.80;99.90;;;;;;4900248;29;20473;-73
2023/10/30 02:39:07;;;;;;;8.75;1.30;;;12.70;99.90;;;;;;4900433;29;20039;-74
2023/10/30 02:41:33;;;;;;;10.00;1.63;;;12.80;99.90;;;;;;4899878;29;20079;-74
2023/10/30 02:43:59;;;;;;;11.63;1.20;;;12.80;99.90;;;;;;4900515;29;20036;-73
2023/10/30 02:46:25;;;;;;;9.93;1.10;;;12.80;99.90;;;;;;4899937;29;20495;-73
2023/10/30 02:48:50;;;;;;;6.47;0.98;;;12.80;99.90;;;;;;4883238;29;20504;-74
2023/10/30 02:51:16;;;;;;;9.85;1.33;;;12.80;99.90;;;;;;4899716;29;20037;-74
2023/10/30 02:53:42;;;;;;;14.55;1.65;;;12.70;99.90;;;;;;4900113;29;20108;-73
2023/10/30 02:56:08;;;;;;;13.23;1.30;;;12.80;99.90;;;;;;4899794;29;20529;-73
2023/10/30 02:58:34;;;;;;;8.15;0.93;;;12.80;99.90;;;;;;4900366;29;20028;-73
2023/10/30 03:01:00;;;;;;;8.10;1.10;;;12.70;99.90;;;;;;4899681;29;20032;-73
2023/10/30 03:03:26;;;;;;;10.10;1.45;;;12.80;99.90;;;;;;4899796;29;20037;-73
2023/10/30 03:05:51;;;;;;;10.60;1.17;;;12.80;99.90;;;;;;4899818;29;20044;-73
2023/10/30 03:08:17;;;;;;;10.88;1.05;;;12.70;99.90;;;;;;4899779;29;20434;-74
2023/10/30 03:10:43;;;;;;;8.13;1.27;;;12.80;99.90;;;;;;4899786;29;20458;-74
2023/10/30 03:13:09;;;;;;;9.85;1.40;;;12.80;99.90;;;;;;4899179;29;20473;-74
2023/10/30 03:15:35;;;;;;;6.63;1.35;;;12.70;99.90;;;;;;4882553;29;20042;-74
2023/10/30 03:18:01;;;;;;;8.85;0.73;;;12.80;99.90;;;;;;4899138;29;20089;-73
2023/10/30 03:20:27;;;;;;;10.95;1.23;;;12.70;99.90;;;;;;4898994;29;20499;-73
2023/10/30 03:22:53;;;;;;;14.23;1.38;;;12.80;99.90;;;;;;4899699;29;20028;-73
2023/10/30 03:25:18;;;;;;;7.10;1.10;;;12.80;99.90;;;;;;4899376;29;20133;-73
2023/10/30 03:27:44;;;;;;;7.18;0.90;;;12.80;99.90;;;;;;4898818;29;20032;-73
2023/10/30 03:30:10;;;;;;;7.85;0.90;;;12.80;99.90;;;;;;4899275;29;20055;-73
2023/10/30 03:32:36;;;;;;;8.73;0.90;;;12.80;99.90;;;;;;4882450;29;20032;-73
2023/10/30 03:35:02;;;;;;;10.60;1.20;;;12.80;99.90;;;;;;4899650;29;20031;-74
2023/10/30 03:37:28;;;;;;;8.70;0.88;;;12.80;99.90;;;;;;4882754;29;20064;-73
2023/10/30 03:39:54;;;;;;;8.60;1.30;;;12.80;99.90;;;;;;4899487;29;20039;-73
2023/10/30 03:42:19;;;;;;;10.13;1.10;;;12.80;99.90;;;;;;4882317;29;20075;-73
2023/10/30 03:44:45;;;;;;;10.13;1.42;;;12.80;99.90;;;;;;4898824;29;20033;-73
2023/10/30 03:47:11;;;;;;;8.50;0.88;;;12.80;99.90;;;;;;4898858;29;20093;-74
2023/10/30 03:49:37;;;;;;;8.57;1.52;;;12.80;99.90;;;;;;4881942;29;20029;-73
2023/10/30 03:52:02;;;;;;;5.93;1.30;;;12.80;99.90;;;;;;4898855;29;20063;-73
2023/10/30 03:54:28;;;;;;;7.38;0.77;;;12.70;99.90;;;;;;4882094;29;20067;-72
2023/10/30 03:56:54;;;;;;;9.00;1.35;;;12.80;99.90;;;;;;4898495;29;20112;-73
2023/10/30 03:59:20;;;;;;;12.25;1.50;;;12.80;99.90;;;;;;4898984;29;20064;-73
2023/10/30 04:01:46;;;;;;;8.60;1.67;;;12.80;99.90;;;;;;4899391;29;20055;-73
2023/10/30 04:04:11;;;;;;;6.63;1.50;;;12.80;99.90;;;;;;4881630;29;20489;-73
2023/10/30 04:06:37;;;;;;;11.32;1.17;;;12.80;99.90;;;;;;4882166;29;20377;-73
2023/10/30 04:09:06;;;;;;;5.22;0.80;;;12.80;99.90;;;;;;4898834;29;20419;-73
2023/10/30 04:11:32;;;;;;;6.78;0.80;;;12.80;99.90;;;;;;4898790;29;20206;-73
2023/10/30 04:13:58;;;;;;;9.90;0.80;;;12.80;99.90;;;;;;4898562;29;20044;-73
2023/10/30 04:16:24;;;;;;;6.20;0.70;;;12.80;99.90;;;;;;4898394;29;20037;-73
2023/10/30 04:18:49;;;;;;;10.77;0.75;;;12.80;99.90;;;;;;4898391;29;20092;-73
2023/10/30 04:21:15;;;;;;;7.10;1.10;;;12.80;99.90;;;;;;4874333;29;20187;-72
2023/10/30 04:23:42;;;;;;;7.68;0.90;;;12.90;99.90;;;;;;4917111;29;20039;-73
2023/10/30 04:26:08;;;;;;;6.05;0.90;;;12.80;99.90;;;;;;4899672;29;20127;-73
2023/10/30 04:28:34;;;;;;;11.05;1.00;;;12.80;99.90;;;;;;4916865;29;20043;-72
2023/10/30 04:31:00;;;;;;;7.70;1.02;;;12.80;99.90;;;;;;4917083;29;20036;-73
2023/10/30 04:33:26;;;;;;;11.07;1.10;;;12.80;99.90;;;;;;4917358;29;20115;-73
2023/10/30 04:35:53;;;;;;;6.43;0.70;;;12.80;99.90;;;;;;4916719;29;20096;-73
2023/10/30 04:38:18;;;;;;;10.52;1.10;;;12.80;99.90;;;;;;4917414;29;20092;-73
2023/10/30 04:40:44;;;;;;;6.18;0.70;;;12.80;99.90;;;;;;4916764;29;20040;-73
2023/10/30 04:43:09;;;;;;;9.82;0.77;;;12.80;99.90;;;;;;4916734;29;20035;-73
2023/10/30 04:45:35;;;;;;;10.38;1.27;;;12.80;99.90;;;;;;4917594;29;20070;-73
2023/10/30 04:48:01;;;;;;;8.77;1.00;;;12.80;99.90;;;;;;4916952;29;20118;-73
2023/10/30 04:50:26;;;;;;;7.07;0.93;;;12.80;99.90;;;;;;4917413;29;20028;-73
2023/10/30 04:52:52;;;;;;;6.95;0.77;;;12.70;99.90;;;;;;4899801;29;20099;-73
2023/10/30 04:55:18;;;;;;;9.43;0.90;;;12.70;99.90;;;;;;4899657;29;20039;-73
2023/10/30 04:57:43;;;;;;;7.35;0.90;;;12.70;99.90;;;;;;4903805;29;20127;-73
2023/10/30 05:00:09;;;;;;;5.72;0.88;;;12.70;99.90;;;;;;4920740;29;20059;-73
2023/10/30 05:02:35;;;;;;;9.10;1.10;;;12.70;99.90;;;;;;4920475;29;20428;-73
2023/10/30 05:05:01;;;;;;;9.32;1.05;;;12.70;99.90;;;;;;4920361;29;20128;-74
2023/10/30 05:07:26;;;;;;;10.55;1.00;;;12.70;99.90;;;;;;4920577;29;20075;-73
2023/10/30 05:09:52;;;;;;;9.43;0.90;;;12.70;99.90;;;;;;4920789;29;20032;-73
2023/10/30 05:12:17;;;;;;;9.38;1.23;;;12.70;99.90;;;;;;4920128;29;20040;-75
2023/10/30 05:14:43;;;;;;;7.93;0.73;;;12.70;99.90;;;;;;4904230;29;20100;-73
2023/10/30 05:17:09;;;;;;;9.38;0.80;;;12.60;99.90;;;;;;4920337;29;20051;-73
2023/10/30 05:19:35;;;;;;;9.15;0.85;;;12.60;99.90;;;;;;4920487;29;20028;-74
2023/10/30 05:22:00;;;;;;;8.35;1.23;;;12.70;99.90;;;;;;4906355;29;20397;-73
2023/10/30 05:24:26;;;;;;;6.80;0.70;;;12.60;99.90;;;;;;4901083;29;20096;-73
2023/10/30 05:26:52;;;;;;;15.38;1.10;;;12.60;99.90;;;;;;4901319;29;20430;-74
2023/10/30 05:29:18;;;;;;;4.78;0.65;;;12.70;99.90;;;;;;4901457;29;20033;-73
2023/10/30 05:31:44;;;;;;;10.93;1.65;;;12.60;99.90;;;;;;4884203;29;20040;-73
2023/10/30 05:34:10;;;;;;;8.68;0.80;;;12.60;99.90;;;;;;4884546;29;20048;-73
2023/10/30 05:36:36;;;;;;;12.45;1.00;;;12.60;99.90;;;;;;4901295;29;20462;-73
2023/10/30 05:39:02;;;;;;;7.97;0.93;;;12.60;99.90;;;;;;4901241;29;20060;-72
2023/10/30 05:41:28;;;;;;;9.82;1.08;;;12.60;99.90;;;;;;4884176;29;20024;-72
2023/10/30 05:43:54;;;;;;;9.27;1.00;;;12.60;99.90;;;;;;4884738;29;20121;-73
2023/10/30 05:46:19;;;;;;;6.20;0.73;;;12.50;99.90;;;;;;4884168;29;20179;-72
2023/10/30 05:48:45;;;;;;;12.05;1.00;;;12.60;99.90;;;;;;4900847;29;20041;-73
2023/10/30 05:51:11;;;;;;;12.90;1.42;;;12.50;99.90;;;;;;4900987;29;20032;-73
2023/10/30 05:53:37;;;;;;;7.68;1.13;;;12.50;99.90;;;;;;4901411;29;20037;-72
2023/10/30 05:56:02;;;;;;;9.40;0.80;;;12.60;99.90;;;;;;4901104;29;20382;-72
2023/10/30 05:58:28;;;;;;;14.05;1.17;;;12.60;99.90;;;;;;4900858;29;20073;-73
2023/10/30 06:00:54;;;;;;;10.30;0.82;;;12.60;99.90;;;;;;4900616;29;20442;-73
2023/10/30 06:03:19;;;;;;;12.18;0.95;;;12.60;99.90;;;;;;4900545;29;20037;-74
2023/10/30 06:05:45;;;;;;;9.18;1.00;;;12.60;99.90;;;;;;4900897;29;20043;-74
2023/10/30 06:08:11;;;;;;;5.88;0.80;;;12.60;99.90;;;;;;4900041;29;20064;-73
2023/10/30 06:10:38;;;;;;;6.25;1.10;;;12.60;99.90;;;;;;4900888;29;20052;-74
2023/10/30 06:13:07;;;;;;;8.90;0.82;;;12.50;99.90;;;;;;4901169;29;20048;-72
2023/10/30 06:15:33;;;;;;;9.43;1.10;;;12.60;99.90;;;;;;4900401;29;20044;-72
2023/10/30 06:17:59;;;;;;;6.13;0.80;;;12.60;99.90;;;;;;4900558;29;20489;-73
2023/10/30 06:20:25;;;;;;;4.95;0.85;;;12.60;99.90;;;;;;4900205;29;20028;-73
2023/10/30 06:22:51;;;;;;;8.15;1.13;;;12.60;99.90;;;;;;4900456;29;20039;-73
2023/10/30 06:25:17;;;;;;;8.93;0.98;;;12.60;99.90;;;;;;4899759;29;20033;-73
2023/10/30 06:27:43;;;;;;;9.38;0.93;;;12.60;99.90;;;;;;4900316;29;20037;-73
2023/10/30 06:30:12;;;;;;;8.48;1.02;;;12.60;99.90;;;;;;4900397;29;20033;-74
2023/10/30 06:32:38;;;;;;;8.55;1.30;;;12.60;99.90;;;;;;4883744;29;20489;-74
2023/10/30 06:35:06;;;;;;;14.15;0.98;;;12.60;99.90;;;;;;4900398;29;20037;-74
2023/10/30 06:37:32;;;;;;;5.88;0.88;;;12.70;99.90;;;;;;4899920;29;20064;-73
2023/10/30 06:39:58;;;;;;;7.07;0.80;;;12.70;99.90;;;;;;4867826;29;20059;-74
2023/10/30 06:42:23;;;;;;;12.05;1.50;;;12.80;99.90;;;;;;4883805;29;20552;-74
2023/10/30 06:44:50;;;;;;;8.88;1.30;;;12.80;99.90;;;;;;4900052;29;20028;-74
2023/10/30 06:47:15;;;;;;;8.45;1.15;;;12.80;99.90;;;;;;4899826;29;20059;-74
2023/10/30 06:49:41;;;;;;;9.00;1.33;;;12.70;99.90;;;;;;4882915;29;20029;-74
2023/10/30 06:52:07;;;;;;;7.30;0.82;;;12.80;99.90;;;;;;4899685;29;20086;-74
2023/10/30 06:54:32;;;;;;;6.85;1.13;;;12.80;99.90;;;;;;4900286;29;20025;-75
2023/10/30 06:56:58;;;;;;;10.10;1.40;;;12.80;99.90;;;;;;4899622;29;20111;-74
2023/10/30 06:59:23;;;;;;;6.50;1.60;;;12.80;99.90;;;;;;4882964;29;20108;-74
2023/10/30 07:01:49;;;;;;;5.43;1.50;;;12.90;99.90;;;;;;4882767;29;20454;-74
2023/10/30 07:04:15;;;;;;;8.30;1.20;;;12.90;99.90;;;;;;4899296;29;20043;-76
2023/10/30 07:06:43;;;;;;;8.93;1.30;;;12.90;99.90;;;;;;4899739;29;20032;-77
2023/10/30 07:09:09;;;;;;;8.65;1.33;;;12.90;99.90;;;;;;4899655;29;20044;-77
2023/10/30 07:11:36;;;;;;;8.40;1.00;;;12.90;99.90;;;;;;4899575;29;20041;-77
2023/10/30 07:14:02;;;;;;;8.63;1.20;;;12.90;99.90;;;;;;4899638;29;20081;-78
2023/10/30 07:16:32;;;;;;;9.07;0.90;;;13.00;99.90;;;;;;4899476;29;20414;-77
2023/10/30 07:18:58;;;;;;;12.25;1.10;;;13.00;99.90;;;;;;4899004;29;20021;-78
2023/10/30 07:21:25;;;;;;;7.97;0.80;;;13.00;99.90;;;;;;4899319;29;20100;-78
2023/10/30 07:23:51;;;;;;;10.63;1.20;;;13.00;99.90;;;;;;4899623;29;20088;-76
2023/10/30 07:26:17;;;;;;;11.50;1.00;;;13.00;99.90;;;;;;4898664;29;20037;-76
2023/10/30 07:28:43;;;;;;;9.73;1.00;;;13.00;99.90;;;;;;4899399;29;20055;-75
2023/10/30 07:31:09;;;;;;;12.20;1.00;;;13.00;99.90;;;;;;4899195;29;20039;-75
2023/10/30 07:33:35;;;;;;;8.15;0.77;;;13.00;99.90;;;;;;4899459;29;20033;-77
2023/10/30 07:36:01;;;;;;;10.98;1.30;;;13.00;99.90;;;;;;4899472;29;20394;-75
2023/10/30 07:38:30;;;;;;;9.40;1.30;;;13.10;99.90;;;;;;4899213;29;20104;-75
2023/10/30 07:40:56;;;;;;;10.95;1.15;;;13.10;99.90;;;;;;4899221;29;20036;-74
2023/10/30 07:43:21;;;;;;;7.93;1.17;;;13.10;99.90;;;;;;4899254;29;20049;-74
2023/10/30 07:45:50;;;;;;;14.70;1.42;;;13.10;99.90;;;;;;4899577;29;20521;-74
2023/10/30 07:48:17;;;;;;;9.88;1.05;;;13.10;99.90;;;;;;4899422;29;20035;-74
2023/10/30 07:50:45;;;;;;;8.18;0.80;;;13.10;99.90;;;;;;4898616;29;20385;-76
2023/10/30 07:53:11;;;;;;;10.45;1.00;;;13.10;99.90;;;;;;4898936;29;20041;-75
2023/10/30 07:55:39;;;;;;;9.73;1.20;;;13.20;99.90;;;;;;4882041;29;20478;-75
2023/10/30 07:58:08;;;;;;;13.85;1.48;;;13.20;99.90;;;;;;4898785;29;20115;-76
2023/10/30 08:00:33;;;;;;;9.00;1.60;;;13.20;99.90;;;;;;4899030;29;20068;-76
2023/10/30 08:03:00;;;;;;;8.40;1.13;;;13.20;99.90;;;;;;4898739;29;20453;-76
2023/10/30 08:05:26;;;;;;;11.35;1.50;;;13.20;99.90;;;;;;4898544;29;20028;-75
2023/10/30 08:07:52;;;;;;;10.10;1.60;;;13.20;99.90;;;;;;4898644;29;20029;-73
2023/10/30 08:10:18;;;;;;;11.45;1.30;;;13.20;99.90;;;;;;4899082;29;20421;-75
2023/10/30 08:12:43;;;;;;;10.30;1.20;;;13.20;99.90;;;;;;4898529;29;20043;-73
2023/10/30 08:15:09;;;;;;;10.20;0.90;;;13.30;99.90;;;;;;4898275;29;20039;-74
2023/10/30 08:17:36;;;;;;;11.90;1.67;;;13.30;99.90;;;;;;4898552;29;20375;-75
2023/10/30 08:20:03;;;;;;;13.63;2.00;;;13.30;99.90;;;;;;4898473;29;20040;-74
2023/10/30 08:22:29;;;;;;;10.27;1.05;;;13.30;99.90;;;;;;4899990;29;20048;-75
2023/10/30 08:24:55;;;;;;;11.40;1.60;;;13.40;99.90;;;;;;4917009;29;20377;-73
2023/10/30 08:27:20;;;;;;;10.35;1.55;;;13.40;99.90;;;;;;4900524;29;20036;-74
2023/10/30 08:29:46;;;;;;;8.50;1.05;;;13.40;99.90;;;;;;4916863;29;20028;-74
2023/10/30 08:32:13;;;;;;;14.48;1.65;;;13.50;99.90;;;;;;4899887;29;20024;-74
2023/10/30 08:34:38;;;;;;;14.20;1.88;;;13.50;99.90;;;;;;4916778;29;20481;-73
2023/10/30 08:37:04;;;;;;;8.73;1.10;;;13.60;99.90;;;;;;4917202;29;20039;-75
2023/10/30 08:39:30;;;;;;;7.60;1.05;;;13.60;99.90;;;;;;4917277;29;20036;-74
2023/10/30 08:41:55;;;;;;;6.70;1.13;;;13.70;99.90;;;;;;4916831;29;20057;-75
2023/10/30 08:44:21;;;;;;;18.70;2.58;;;13.80;99.90;;;;;;4917633;29;20057;-75
2023/10/30 08:46:47;;;;;;;11.93;1.40;;;13.90;99.90;;;;;;4917088;29;20032;-75
2023/10/30 08:49:12;;;;;;;14.63;1.90;;;13.90;99.90;;;;;;4900172;29;20040;-76
2023/10/30 08:51:42;;;;;;;11.63;1.38;;;14.00;99.90;;;;;;4916836;29;20032;-74
2023/10/30 08:54:08;;;;;;;9.10;1.45;;;14.10;99.90;;;;;;4916660;29;20383;-75
2023/10/30 08:56:34;;;;;;;10.77;1.67;;;14.20;99.90;;;;;;4900530;29;20418;-75
2023/10/30 08:58:59;;;;;;;10.20;0.98;;;14.20;99.90;;;;;;4916911;29;20400;-75
2023/10/30 09:01:26;;;;;;;8.23;1.30;;;14.20;99.90;;;;;;4917093;29;20032;-75
2023/10/30 09:03:52;;;;;;;13.82;2.45;;;14.30;99.90;;;;;;4916736;29;20084;-75
2023/10/30 09:06:18;;;;;;;6.70;1.25;;;14.30;99.90;;;;;;4916528;29;20040;-75
2023/10/30 09:08:44;;;;;;;8.48;1.55;;;14.20;99.90;;;;;;4916783;29;20039;-75
2023/10/30 09:11:10;;;;;;;14.02;1.60;;;14.30;99.90;;;;;;4900197;29;20024;-76
2023/10/30 09:13:36;;;;;;;9.65;1.08;;;14.30;99.90;;;;;;4916962;29;20047;-75
2023/10/30 09:16:01;;;;;;;6.65;1.15;;;14.30;99.90;;;;;;4916837;29;20111;-74
2023/10/30 09:18:27;;;;;;;10.60;1.45;;;14.30;99.90;;;;;;4899842;29;20024;-77
2023/10/30 09:20:52;;;;;;;11.13;1.17;;;14.30;99.90;;;;;;4910960;29;20076;-74
2023/10/30 09:23:18;;;;;;;9.25;1.10;;;14.30;99.90;;;;;;4881653;29;20044;-75
2023/10/30 09:25:44;;;;;;;7.57;1.02;;;14.30;99.90;;;;;;4898025;29;20043;-74
2023/10/30 09:28:10;;;;;;;13.85;1.85;;;14.30;99.90;;;;;;4897888;29;20088;-75
2023/10/30 09:30:36;;;;;;;12.95;1.48;;;14.30;99.90;;;;;;4897812;29;20065;-75
2023/10/30 09:33:02;;;;;;;11.00;1.17;;;14.40;99.90;;;;;;4897576;29;20067;-74
2023/10/30 09:35:29;;;;;;;11.25;1.35;;;14.40;99.90;;;;;;4898122;29;20029;-75
2023/10/30 09:37:58;;;;;;;10.05;1.42;;;14.50;99.90;;;;;;4897906;29;20036;-75
2023/10/30 09:40:27;;;;;;;10.25;1.35;;;14.40;99.90;;;;;;4897304;29;20028;-75
2023/10/30 09:42:54;;;;;;;11.95;1.25;;;14.50;99.90;;;;;;4900106;29;20433;-74
2023/10/30 09:45:24;;;;;;;14.07;2.30;;;14.40;99.90;;;;;;4901305;29;20032;-75
2023/10/30 09:47:54;;;;;;;8.77;1.85;;;14.40;99.90;;;;;;4900896;29;20536;-74
2023/10/30 09:50:22;;;;;;;11.65;2.03;;;14.50;99.90;;;;;;4884504;29;20121;-74
2023/10/30 09:52:48;;;;;;;9.07;1.67;;;14.50;99.90;;;;;;4901005;29;20135;-74
2023/10/30 09:55:23;;;;;;;10.13;1.17;;;14.50;99.90;;;;;;4884133;29;20056;-74
2023/10/30 09:57:53;;;;;;;9.95;1.10;;;14.60;99.90;;;;;;4901123;29;20041;-74
2023/10/30 10:00:19;;;;;;;11.73;1.23;;;14.50;99.90;;;;;;4884013;29;20053;-74
2023/10/30 10:02:46;;;;;;;8.68;1.00;;;14.50;99.90;;;;;;4900716;29;20036;-75
2023/10/30 10:05:13;;;;;;;10.13;1.92;;;14.50;99.90;;;;;;4900558;29;20044;-74
2023/10/30 10:07:40;;;;;;;7.50;0.90;;;14.60;99.90;;;;;;4900480;29;20033;-73
2023/10/30 10:10:08;;;;;;;12.43;1.35;;;14.60;99.90;;;;;;4900715;29;20430;-74
2023/10/30 10:12:34;;;;;;;9.15;1.50;;;14.60;99.90;;;;;;4900701;29;20107;-73
2023/10/30 10:15:06;;;;;;;7.47;1.00;;;14.70;99.90;;;;;;4900666;29;20031;-73
2023/10/30 10:17:42;;;;;;;7.30;0.98;;;14.70;99.90;;;;;;4901193;29;20032;-74
2023/10/30 10:20:08;;;;;;;13.35;1.60;;;14.60;99.90;;;;;;4900859;29;20035;-74
2023/10/30 10:22:34;;;;;;;10.38;1.00;;;14.70;99.90;;;;;;4900532;29;20485;-76
2023/10/30 10:25:00;;;;;;;8.30;0.57;;;14.70;99.90;;;;;;4900732;29;20037;-74
2023/10/30 10:27:27;;;;;;;13.80;1.77;;;14.80;99.90;;;;;;4883403;29;20036;-77
2023/10/30 10:29:54;;;;;;;10.55;1.30;;;14.80;99.90;;;;;;4900230;29;20470;-77
2023/10/30 10:32:27;;;;;;;12.52;1.15;;;14.80;99.90;;;;;;4900277;29;20056;-78
2023/10/30 10:35:05;;;;;;;8.25;1.70;;;14.80;99.90;;;;;;4883536;29;20085;-74
2023/10/30 10:37:31;;;;;;;9.02;1.00;;;14.80;99.90;;;;;;4899762;29;20377;-73
2023/10/30 10:39:57;;;;;;;10.13;1.45;;;14.80;99.90;;;;;;4899688;29;20025;-74
2023/10/30 10:42:25;;;;;;;10.65;1.30;;;14.70;99.90;;;;;;4900018;29;20028;-73
2023/10/30 10:44:54;;;;;;;12.20;1.50;;;14.70;99.90;;;;;;4883156;29;20466;-73
2023/10/30 10:47:26;;;;;;;10.48;1.38;;;14.70;99.90;;;;;;4900309;29;20039;-73
2023/10/30 10:49:52;;;;;;;6.83;1.10;;;14.70;99.90;;;;;;4900362;29;20390;-73
2023/10/30 10:52:19;;;;;;;11.40;1.08;;;14.80;99.90;;;;;;4900039;29;20043;-73
2023/10/30 10:55:04;;;;;;;8.75;1.20;;;14.80;99.90;;;;;;4899051;29;20032;-73
2023/10/30 10:57:41;;;;;;;11.73;0.90;;;14.80;99.90;;;;;;4883507;29;20188;-72
2023/10/30 11:00:11;;;;;;;10.10;1.17;;;14.80;99.90;;;;;;4899479;29;20454;-73
2023/10/30 11:02:39;;;;;;;9.85;1.80;;;14.80;99.90;;;;;;4900178;29;20029;-73
2023/10/30 11:05:05;;;;;;;7.70;1.80;;;14.80;99.90;;;;;;4882838;29;20033;-73
2023/10/30 11:07:57;;;;;;;12.40;1.60;;;14.90;99.90;;;;;;4899375;29;20116;-73
2023/10/30 11:10:29;;;;;;;10.77;0.98;;;14.90;99.90;;;;;;4899828;29;20029;-72
2023/10/30 11:13:08;;;;;;;9.18;1.33;;;14.80;99.90;;;;;;4899593;29;20366;-73
2023/10/30 11:15:45;;;;;;;7.03;1.48;;;14.90;99.90;;;;;;4899864;29;20039;-73
2023/10/30 11:18:21;;;;;;;9.40;1.20;;;14.90;99.90;;;;;;4899662;29;20111;-73
2023/10/30 11:20:52;;;;;;;10.65;1.38;;;14.90;99.90;;;;;;4899754;29;20053;-74
2023/10/30 11:23:43;;;;;;;7.40;1.45;;;15.00;99.90;;;;;;4899652;29;20032;-73
2023/10/30 11:26:10;;;;;;;6.57;0.90;;;15.00;99.90;;;;;;4898663;29;20029;-74
2023/10/30 11:28:37;;;;;;;10.70;1.00;;;15.00;99.90;;;;;;4899481;29;20059;-72
2023/10/30 11:31:11;;;;;;;8.63;1.30;;;15.00;99.90;;;;;;4899396;29;20037;-73
2023/10/30 11:33:42;;;;;;;10.88;1.30;;;15.00;99.90;;;;;;4866863;29;20462;-74
2023/10/30 11:36:20;;;;;;;12.88;1.98;;;15.00;99.90;;;;;;4898955;29;20043;-73
2023/10/30 11:38:54;;;;;;;4.65;0.90;;;15.10;99.90;;;;;;4899204;29;20060;-74
2023/10/30 11:41:23;;;;;;;7.20;0.77;;;15.10;99.90;;;;;;4898722;29;20028;-74
2023/10/30 11:43:49;;;;;;;7.97;1.23;;;15.10;99.90;;;;;;4881788;29;20028;-74
2023/10/30 11:46:17;;;;;;;7.45;1.25;;;15.10;99.90;;;;;;4898578;29;20112;-74
2023/10/30 11:48:43;;;;;;;6.72;1.10;;;15.10;99.90;;;;;;4898921;29;20036;-74
2023/10/30 11:51:09;;;;;;;5.55;1.05;;;15.10;99.90;;;;;;4898972;29;20496;-74
2023/10/30 11:53:35;;;;;;;7.38;0.80;;;15.10;99.90;;;;;;4899019;29;20036;-74
2023/10/30 11:56:03;;;;;;;7.95;0.88;;;15.10;99.90;;;;;;4898812;29;20041;-74
2023/10/30 11:58:29;;;;;;;7.32;1.02;;;15.10;99.90;;;;;;4898452;29;20033;-74
2023/10/30 12:00:58;;;;;;;7.35;0.77;;;15.10;99.90;;;;;;4898752;29;20043;-74
2023/10/30 12:03:23;;;;;;;8.38;1.02;;;15.20;99.90;;;;;;4898735;29;20029;-74
2023/10/30 12:05:51;;;;;;;7.15;0.77;;;15.20;99.90;;;;;;4898554;29;20041;-75
2023/10/30 12:08:17;;;;;;;6.80;0.88;;;15.20;99.90;;;;;;4898864;29;20032;-72
2023/10/30 12:10:48;;;;;;;8.07;0.82;;;15.20;99.90;;;;;;4898474;29;20039;-74
2023/10/30 12:13:13;;;;;;;3.65;0.50;;;15.20;99.90;;;;;;4898719;29;20405;-81
2023/10/30 12:15:40;;;;;;;5.90;0.73;;;15.20;99.90;;;;;;4866609;29;20033;-80
2023/10/30 12:18:06;;;;;;;7.85;1.55;;;15.20;99.90;;;;;;4898256;29;20473;-79
2023/10/30 12:20:32;;;;;;;4.95;0.80;;;15.20;99.90;;;;;;4898600;29;20072;-77
2023/10/30 12:22:58;;;;;;;7.93;1.05;;;15.10;99.90;;;;;;4898595;29;20036;-78
2023/10/30 12:25:24;;;;;;;6.57;1.10;;;15.10;99.90;;;;;;4898043;29;20080;-75
2023/10/30 12:27:50;;;;;;;11.30;0.98;;;15.10;99.90;;;;;;4881602;29;20068;-76
2023/10/30 12:30:17;;;;;;;5.13;0.70;;;15.10;99.90;;;;;;4898293;29;20044;-73
2023/10/30 12:32:52;;;;;;;7.95;1.20;;;15.10;99.90;;;;;;4881554;29;20029;-73
2023/10/30 12:35:18;;;;;;;6.93;1.00;;;15.10;99.90;;;;;;4898823;29;20035;-73
2023/10/30 12:37:43;;;;;;;9.15;1.42;;;15.20;99.90;;;;;;4898152;29;20041;-73
2023/10/30 12:40:12;;;;;;;5.40;0.93;;;15.20;99.90;;;;;;4898658;29;20443;-74